sensor_id;sensor_type;location;lat;lon;timestamp;P1;durP1;ratioP1;P2;durP2;ratioP2
67675;SDS011;54456;48.436;10.028;2022-10-22T08:06:53;5.80;;;2.47;;
67675;SDS011;54456;48.436;10.028;2022-10-22T08:29:30;11.98;;;5.00;;
67675;SDS011;54456;48.436;10.028;2022-10-22T08:31:00;13.18;;;5.97;;
67675;SDS011;54456;48.436;10.028;2022-10-22T08:32:31;16.40;;;6.20;;
67675;SDS011;54456;48.436;10.028;2022-10-22T08:34:01;11.07;;;5.60;;
67675;SDS011;54456;48.436;10.028;2022-10-22T08:35:32;11.77;;;5.47;;
67675;SDS011;54456;48.436;10.028;2022-10-22T08:37:02;12.07;;;5.97;;
67675;SDS011;54456;48.436;10.028;2022-10-22T08:38:32;10.90;;;5.43;;
67675;SDS011;54456;48.436;10.028;2022-10-22T08:40:04;12.13;;;5.40;;
67675;SDS011;54456;48.436;10.028;2022-10-22T08:41:37;9.95;;;4.78;;
67675;SDS011;54456;48.436;10.028;2022-10-22T08:45:19;10.25;;;5.03;;
67675;SDS011;54456;48.436;10.028;2022-10-22T08:48:38;10.20;;;4.80;;
67675;SDS011;54456;48.436;10.028;2022-10-22T08:50:11;9.32;;;3.90;;
67675;SDS011;54456;48.436;10.028;2022-10-22T08:51:47;12.02;;;4.13;;
67675;SDS011;54456;48.436;10.028;2022-10-22T08:53:18;11.68;;;4.05;;
67675;SDS011;54456;48.436;10.028;2022-10-22T08:56:22;6.97;;;3.17;;
67675;SDS011;54456;48.436;10.028;2022-10-22T09:00:01;7.95;;;3.00;;
67675;SDS011;54456;48.436;10.028;2022-10-22T09:01:38;7.53;;;3.00;;
67675;SDS011;54456;48.436;10.028;2022-10-22T09:05:18;7.90;;;2.83;;
67675;SDS011;54456;48.436;10.028;2022-10-22T09:06:51;11.40;;;3.17;;
67675;SDS011;54456;48.436;10.028;2022-10-22T09:09:55;5.87;;;2.60;;
67675;SDS011;54456;48.436;10.028;2022-10-22T09:11:30;6.95;;;2.58;;
67675;SDS011;54456;48.436;10.028;2022-10-22T09:13:02;7.45;;;3.08;;
67675;SDS011;54456;48.436;10.028;2022-10-22T09:14:33;6.70;;;2.60;;
67675;SDS011;54456;48.436;10.028;2022-10-22T09:16:37;6.80;;;2.55;;
67675;SDS011;54456;48.436;10.028;2022-10-22T09:20:19;6.68;;;2.70;;
67675;SDS011;54456;48.436;10.028;2022-10-22T09:24:19;5.72;;;2.22;;
67675;SDS011;54456;48.436;10.028;2022-10-22T09:26:07;7.70;;;1.95;;
67675;SDS011;54456;48.436;10.028;2022-10-22T09:27:41;7.20;;;2.50;;
67675;SDS011;54456;48.436;10.028;2022-10-22T09:29:16;6.53;;;2.33;;
67675;SDS011;54456;48.436;10.028;2022-10-22T09:30:49;5.15;;;1.90;;
67675;SDS011;54456;48.436;10.028;2022-10-22T09:32:19;5.87;;;2.00;;
67675;SDS011;54456;48.436;10.028;2022-10-22T09:33:50;5.68;;;2.03;;
67675;SDS011;54456;48.436;10.028;2022-10-22T09:35:21;6.63;;;2.15;;
67675;SDS011;54456;48.436;10.028;2022-10-22T09:36:59;5.75;;;2.08;;
67675;SDS011;54456;48.436;10.028;2022-10-22T09:38:38;4.75;;;2.10;;
67675;SDS011;54456;48.436;10.028;2022-10-22T09:40:12;9.52;;;2.00;;
67675;SDS011;54456;48.436;10.028;2022-10-22T09:41:44;6.82;;;2.70;;
67675;SDS011;54456;48.436;10.028;2022-10-22T09:43:14;5.03;;;2.17;;
67675;SDS011;54456;48.436;10.028;2022-10-22T09:44:55;5.75;;;2.20;;
67675;SDS011;54456;48.436;10.028;2022-10-22T09:46:27;5.25;;;2.13;;
67675;SDS011;54456;48.436;10.028;2022-10-22T09:48:03;5.88;;;2.30;;
67675;SDS011;54456;48.436;10.028;2022-10-22T09:49:40;7.60;;;2.17;;
67675;SDS011;54456;48.436;10.028;2022-10-22T09:51:13;5.25;;;1.98;;
67675;SDS011;54456;48.436;10.028;2022-10-22T09:52:44;5.68;;;2.03;;
67675;SDS011;54456;48.436;10.028;2022-10-22T09:54:18;5.97;;;2.00;;
67675;SDS011;54456;48.436;10.028;2022-10-22T09:55:55;6.95;;;2.10;;
67675;SDS011;54456;48.436;10.028;2022-10-22T09:57:27;5.22;;;1.98;;
67675;SDS011;54456;48.436;10.028;2022-10-22T09:58:58;5.97;;;2.00;;
67675;SDS011;54456;48.436;10.028;2022-10-22T10:00:28;4.72;;;1.90;;
67675;SDS011;54456;48.436;10.028;2022-10-22T10:02:01;4.82;;;1.83;;
67675;SDS011;54456;48.436;10.028;2022-10-22T10:03:35;5.78;;;2.05;;
67675;SDS011;54456;48.436;10.028;2022-10-22T10:05:06;6.82;;;2.17;;
67675;SDS011;54456;48.436;10.028;2022-10-22T10:06:38;5.28;;;2.22;;
67675;SDS011;54456;48.436;10.028;2022-10-22T10:08:13;5.38;;;1.90;;
67675;SDS011;54456;48.436;10.028;2022-10-22T10:09:45;5.32;;;1.95;;
67675;SDS011;54456;48.436;10.028;2022-10-22T10:30:32;5.30;;;2.30;;
67675;SDS011;54456;48.436;10.028;2022-10-22T10:32:19;5.80;;;2.45;;
67675;SDS011;54456;48.436;10.028;2022-10-22T10:34:01;6.30;;;2.42;;
67675;SDS011;54456;48.436;10.028;2022-10-22T10:37:46;5.80;;;2.53;;
67675;SDS011;54456;48.436;10.028;2022-10-22T10:41:18;7.00;;;2.40;;
67675;SDS011;54456;48.436;10.028;2022-10-22T10:49:32;5.60;;;2.30;;
67675;SDS011;54456;48.436;10.028;2022-10-22T10:56:22;5.30;;;2.40;;
67675;SDS011;54456;48.436;10.028;2022-10-22T10:58:17;6.30;;;2.40;;
67675;SDS011;54456;48.436;10.028;2022-10-22T11:03:25;7.95;;;3.03;;
67675;SDS011;54456;48.436;10.028;2022-10-22T11:06:56;6.85;;;2.75;;
67675;SDS011;54456;48.436;10.028;2022-10-22T11:08:32;9.10;;;2.80;;
67675;SDS011;54456;48.436;10.028;2022-10-22T11:11:41;6.65;;;2.80;;
67675;SDS011;54456;48.436;10.028;2022-10-22T11:13:20;7.53;;;2.83;;
67675;SDS011;54456;48.436;10.028;2022-10-22T11:15:23;5.35;;;2.20;;
67675;SDS011;54456;48.436;10.028;2022-10-22T11:17:10;6.03;;;2.20;;
67675;SDS011;54456;48.436;10.028;2022-10-22T11:18:47;6.00;;;2.45;;
67675;SDS011;54456;48.436;10.028;2022-10-22T11:20:20;5.15;;;2.13;;
67675;SDS011;54456;48.436;10.028;2022-10-22T11:22:13;5.80;;;2.10;;
67675;SDS011;54456;48.436;10.028;2022-10-22T11:23:49;5.82;;;2.58;;
67675;SDS011;54456;48.436;10.028;2022-10-22T11:25:31;6.15;;;2.60;;
67675;SDS011;54456;48.436;10.028;2022-10-22T11:29:32;5.63;;;2.30;;
67675;SDS011;54456;48.436;10.028;2022-10-22T11:31:17;5.75;;;2.00;;
67675;SDS011;54456;48.436;10.028;2022-10-22T11:32:52;5.40;;;2.17;;
67675;SDS011;54456;48.436;10.028;2022-10-22T11:34:26;5.80;;;2.20;;
67675;SDS011;54456;48.436;10.028;2022-10-22T11:36:00;5.55;;;2.30;;
67675;SDS011;54456;48.436;10.028;2022-10-22T11:37:32;5.10;;;2.15;;
67675;SDS011;54456;48.436;10.028;2022-10-22T11:39:04;5.57;;;1.95;;
67675;SDS011;54456;48.436;10.028;2022-10-22T11:40:36;5.53;;;1.90;;
67675;SDS011;54456;48.436;10.028;2022-10-22T11:42:11;5.07;;;1.90;;
67675;SDS011;54456;48.436;10.028;2022-10-22T11:45:41;6.50;;;1.80;;
67675;SDS011;54456;48.436;10.028;2022-10-22T11:47:19;5.78;;;2.00;;
67675;SDS011;54456;48.436;10.028;2022-10-22T11:49:13;4.55;;;1.85;;
67675;SDS011;54456;48.436;10.028;2022-10-22T11:50:48;6.07;;;1.75;;
67675;SDS011;54456;48.436;10.028;2022-10-22T11:57:36;5.95;;;2.22;;
67675;SDS011;54456;48.436;10.028;2022-10-22T11:59:29;6.20;;;2.17;;
67675;SDS011;54456;48.436;10.028;2022-10-22T12:04:18;6.05;;;2.35;;
67675;SDS011;54456;48.436;10.028;2022-10-22T12:06:46;6.45;;;2.03;;
67675;SDS011;54456;48.436;10.028;2022-10-22T12:07:58;4.68;;;2.10;;
67675;SDS011;54456;48.436;10.028;2022-10-22T12:09:31;5.22;;;2.10;;
67675;SDS011;54456;48.436;10.028;2022-10-22T12:12:34;6.30;;;2.17;;
67675;SDS011;54456;48.436;10.028;2022-10-22T12:15:50;6.05;;;2.40;;
67675;SDS011;54456;48.436;10.028;2022-10-22T12:17:23;6.63;;;2.30;;
67675;SDS011;54456;48.436;10.028;2022-10-22T12:18:56;6.88;;;2.70;;
67675;SDS011;54456;48.436;10.028;2022-10-22T12:20:30;5.30;;;2.33;;
67675;SDS011;54456;48.436;10.028;2022-10-22T12:22:05;6.65;;;2.97;;
67675;SDS011;54456;48.436;10.028;2022-10-22T12:23:43;7.07;;;2.90;;
67675;SDS011;54456;48.436;10.028;2022-10-22T12:25:18;5.97;;;2.60;;
67675;SDS011;54456;48.436;10.028;2022-10-22T12:26:52;6.10;;;2.60;;
67675;SDS011;54456;48.436;10.028;2022-10-22T12:28:22;7.80;;;2.58;;
67675;SDS011;54456;48.436;10.028;2022-10-22T12:29:53;6.25;;;2.47;;
67675;SDS011;54456;48.436;10.028;2022-10-22T12:31:27;7.35;;;2.63;;
67675;SDS011;54456;48.436;10.028;2022-10-22T12:33:05;6.32;;;2.35;;
67675;SDS011;54456;48.436;10.028;2022-10-22T12:34:43;6.65;;;2.40;;
67675;SDS011;54456;48.436;10.028;2022-10-22T12:36:15;7.07;;;2.58;;
67675;SDS011;54456;48.436;10.028;2022-10-22T12:37:54;5.43;;;2.30;;
67675;SDS011;54456;48.436;10.028;2022-10-22T12:39:25;5.20;;;2.15;;
67675;SDS011;54456;48.436;10.028;2022-10-22T12:40:57;8.60;;;2.50;;
67675;SDS011;54456;48.436;10.028;2022-10-22T12:42:27;5.85;;;2.42;;
67675;SDS011;54456;48.436;10.028;2022-10-22T12:43:59;5.22;;;1.90;;
67675;SDS011;54456;48.436;10.028;2022-10-22T12:45:30;5.90;;;2.22;;
67675;SDS011;54456;48.436;10.028;2022-10-22T12:47:02;6.18;;;2.42;;
67675;SDS011;54456;48.436;10.028;2022-10-22T12:48:35;4.85;;;2.30;;
67675;SDS011;54456;48.436;10.028;2022-10-22T12:50:13;5.60;;;2.30;;
67675;SDS011;54456;48.436;10.028;2022-10-22T12:51:46;7.30;;;2.38;;
67675;SDS011;54456;48.436;10.028;2022-10-22T12:53:18;5.45;;;2.08;;
67675;SDS011;54456;48.436;10.028;2022-10-22T12:54:54;5.38;;;2.10;;
67675;SDS011;54456;48.436;10.028;2022-10-22T12:56:25;5.30;;;2.10;;
67675;SDS011;54456;48.436;10.028;2022-10-22T12:57:57;5.85;;;2.10;;
67675;SDS011;54456;48.436;10.028;2022-10-22T12:59:31;5.00;;;2.10;;
67675;SDS011;54456;48.436;10.028;2022-10-22T13:01:03;6.57;;;2.03;;
67675;SDS011;54456;48.436;10.028;2022-10-22T13:02:34;6.55;;;2.30;;
67675;SDS011;54456;48.436;10.028;2022-10-22T13:04:22;5.97;;;2.33;;
67675;SDS011;54456;48.436;10.028;2022-10-22T13:07:50;6.72;;;2.75;;
67675;SDS011;54456;48.436;10.028;2022-10-22T13:09:22;8.18;;;2.67;;
67675;SDS011;54456;48.436;10.028;2022-10-22T13:10:53;5.13;;;2.40;;
67675;SDS011;54456;48.436;10.028;2022-10-22T13:12:25;8.98;;;2.47;;
67675;SDS011;54456;48.436;10.028;2022-10-22T13:14:00;6.10;;;2.63;;
67675;SDS011;54456;48.436;10.028;2022-10-22T13:15:36;7.43;;;2.92;;
67675;SDS011;54456;48.436;10.028;2022-10-22T13:19:32;7.22;;;3.22;;
67675;SDS011;54456;48.436;10.028;2022-10-22T13:22:58;7.03;;;2.67;;
67675;SDS011;54456;48.436;10.028;2022-10-22T13:24:33;6.57;;;2.45;;
67675;SDS011;54456;48.436;10.028;2022-10-22T13:27:43;8.18;;;2.80;;
67675;SDS011;54456;48.436;10.028;2022-10-22T13:29:18;6.10;;;2.72;;
67675;SDS011;54456;48.436;10.028;2022-10-22T13:32:37;7.00;;;2.60;;
67675;SDS011;54456;48.436;10.028;2022-10-22T13:34:11;7.70;;;2.55;;
67675;SDS011;54456;48.436;10.028;2022-10-22T13:35:44;7.05;;;2.60;;
67675;SDS011;54456;48.436;10.028;2022-10-22T13:37:15;7.10;;;3.00;;
67675;SDS011;54456;48.436;10.028;2022-10-22T13:38:45;8.18;;;3.28;;
67675;SDS011;54456;48.436;10.028;2022-10-22T13:40:16;9.67;;;2.83;;
67675;SDS011;54456;48.436;10.028;2022-10-22T13:41:46;7.82;;;2.60;;
67675;SDS011;54456;48.436;10.028;2022-10-22T13:43:19;6.90;;;2.70;;
67675;SDS011;54456;48.436;10.028;2022-10-22T13:44:50;5.53;;;2.63;;
67675;SDS011;54456;48.436;10.028;2022-10-22T13:46:20;6.97;;;2.67;;
67675;SDS011;54456;48.436;10.028;2022-10-22T13:47:52;7.07;;;2.70;;
67675;SDS011;54456;48.436;10.028;2022-10-22T13:49:22;7.28;;;2.90;;
67675;SDS011;54456;48.436;10.028;2022-10-22T13:50:53;8.52;;;2.65;;
67675;SDS011;54456;48.436;10.028;2022-10-22T13:52:33;7.15;;;2.47;;
67675;SDS011;54456;48.436;10.028;2022-10-22T13:54:08;6.28;;;2.70;;
67675;SDS011;54456;48.436;10.028;2022-10-22T13:55:42;7.05;;;2.67;;
67675;SDS011;54456;48.436;10.028;2022-10-22T13:57:16;7.30;;;2.50;;
67675;SDS011;54456;48.436;10.028;2022-10-22T13:58:47;7.30;;;2.50;;
67675;SDS011;54456;48.436;10.028;2022-10-22T14:00:18;7.25;;;2.70;;
67675;SDS011;54456;48.436;10.028;2022-10-22T14:01:50;6.57;;;2.65;;
67675;SDS011;54456;48.436;10.028;2022-10-22T14:03:21;5.45;;;2.28;;
67675;SDS011;54456;48.436;10.028;2022-10-22T14:04:55;7.45;;;2.42;;
67675;SDS011;54456;48.436;10.028;2022-10-22T14:06:32;7.55;;;2.50;;
67675;SDS011;54456;48.436;10.028;2022-10-22T14:08:02;5.75;;;2.40;;
67675;SDS011;54456;48.436;10.028;2022-10-22T14:09:33;9.15;;;2.33;;
67675;SDS011;54456;48.436;10.028;2022-10-22T14:11:03;7.23;;;2.03;;
67675;SDS011;54456;48.436;10.028;2022-10-22T14:12:34;6.90;;;2.60;;
67675;SDS011;54456;48.436;10.028;2022-10-22T14:14:04;7.47;;;2.60;;
67675;SDS011;54456;48.436;10.028;2022-10-22T14:15:37;6.28;;;2.30;;
67675;SDS011;54456;48.436;10.028;2022-10-22T14:17:12;7.25;;;2.55;;
67675;SDS011;54456;48.436;10.028;2022-10-22T14:18:46;6.35;;;2.40;;
67675;SDS011;54456;48.436;10.028;2022-10-22T14:20:19;7.20;;;2.50;;
67675;SDS011;54456;48.436;10.028;2022-10-22T14:21:50;7.40;;;2.63;;
67675;SDS011;54456;48.436;10.028;2022-10-22T14:23:22;6.07;;;2.50;;
67675;SDS011;54456;48.436;10.028;2022-10-22T14:24:53;7.70;;;2.83;;
67675;SDS011;54456;48.436;10.028;2022-10-22T14:26:26;8.93;;;2.72;;
67675;SDS011;54456;48.436;10.028;2022-10-22T14:28:00;6.95;;;2.50;;
67675;SDS011;54456;48.436;10.028;2022-10-22T14:29:30;6.07;;;2.50;;
67675;SDS011;54456;48.436;10.028;2022-10-22T14:31:00;5.97;;;2.60;;
67675;SDS011;54456;48.436;10.028;2022-10-22T14:32:31;7.80;;;2.50;;
67675;SDS011;54456;48.436;10.028;2022-10-22T14:34:01;6.88;;;2.50;;
67675;SDS011;54456;48.436;10.028;2022-10-22T14:35:31;5.47;;;2.40;;
67675;SDS011;54456;48.436;10.028;2022-10-22T14:37:02;6.15;;;2.40;;
67675;SDS011;54456;48.436;10.028;2022-10-22T14:38:32;5.97;;;2.13;;
67675;SDS011;54456;48.436;10.028;2022-10-22T14:40:02;6.28;;;2.45;;
67675;SDS011;54456;48.436;10.028;2022-10-22T14:41:33;6.82;;;2.50;;
67675;SDS011;54456;48.436;10.028;2022-10-22T14:43:04;7.55;;;2.60;;
67675;SDS011;54456;48.436;10.028;2022-10-22T14:44:34;7.47;;;2.53;;
67675;SDS011;54456;48.436;10.028;2022-10-22T14:46:05;6.05;;;2.58;;
67675;SDS011;54456;48.436;10.028;2022-10-22T14:47:35;7.07;;;2.43;;
67675;SDS011;54456;48.436;10.028;2022-10-22T14:49:05;6.55;;;2.70;;
67675;SDS011;54456;48.436;10.028;2022-10-22T14:50:36;6.50;;;2.45;;
67675;SDS011;54456;48.436;10.028;2022-10-22T14:52:06;6.50;;;2.42;;
67675;SDS011;54456;48.436;10.028;2022-10-22T14:53:37;5.55;;;2.40;;
67675;SDS011;54456;48.436;10.028;2022-10-22T14:55:11;7.07;;;2.67;;
67675;SDS011;54456;48.436;10.028;2022-10-22T14:56:42;6.35;;;2.40;;
67675;SDS011;54456;48.436;10.028;2022-10-22T14:58:13;5.95;;;2.38;;
67675;SDS011;54456;48.436;10.028;2022-10-22T14:59:44;9.30;;;2.35;;
67675;SDS011;54456;48.436;10.028;2022-10-22T15:01:14;7.07;;;2.33;;
67675;SDS011;54456;48.436;10.028;2022-10-22T15:02:45;7.13;;;2.30;;
67675;SDS011;54456;48.436;10.028;2022-10-22T15:04:16;6.45;;;2.38;;
67675;SDS011;54456;48.436;10.028;2022-10-22T15:05:49;6.10;;;2.13;;
67675;SDS011;54456;48.436;10.028;2022-10-22T15:07:22;7.07;;;2.20;;
67675;SDS011;54456;48.436;10.028;2022-10-22T15:08:53;6.80;;;2.40;;
67675;SDS011;54456;48.436;10.028;2022-10-22T15:10:24;5.80;;;2.15;;
67675;SDS011;54456;48.436;10.028;2022-10-22T15:11:55;6.00;;;2.10;;
67675;SDS011;54456;48.436;10.028;2022-10-22T15:13:25;7.82;;;2.30;;
67675;SDS011;54456;48.436;10.028;2022-10-22T15:14:57;7.25;;;2.35;;
67675;SDS011;54456;48.436;10.028;2022-10-22T15:16:27;5.90;;;2.20;;
67675;SDS011;54456;48.436;10.028;2022-10-22T15:17:57;7.38;;;2.22;;
67675;SDS011;54456;48.436;10.028;2022-10-22T15:19:28;6.03;;;2.67;;
67675;SDS011;54456;48.436;10.028;2022-10-22T15:20:59;5.53;;;2.50;;
67675;SDS011;54456;48.436;10.028;2022-10-22T15:22:34;7.93;;;2.63;;
67675;SDS011;54456;48.436;10.028;2022-10-22T15:24:05;6.28;;;2.25;;
67675;SDS011;54456;48.436;10.028;2022-10-22T15:25:35;9.18;;;2.63;;
67675;SDS011;54456;48.436;10.028;2022-10-22T15:27:06;7.47;;;2.42;;
67675;SDS011;54456;48.436;10.028;2022-10-22T15:28:37;7.35;;;2.50;;
67675;SDS011;54456;48.436;10.028;2022-10-22T15:30:08;5.53;;;2.53;;
67675;SDS011;54456;48.436;10.028;2022-10-22T15:31:43;7.50;;;2.80;;
67675;SDS011;54456;48.436;10.028;2022-10-22T15:33:14;6.40;;;2.53;;
67675;SDS011;54456;48.436;10.028;2022-10-22T15:34:44;6.00;;;2.50;;
67675;SDS011;54456;48.436;10.028;2022-10-22T15:36:15;7.37;;;2.57;;
67675;SDS011;54456;48.436;10.028;2022-10-22T15:37:49;7.95;;;2.83;;
67675;SDS011;54456;48.436;10.028;2022-10-22T15:39:20;11.55;;;5.28;;
67675;SDS011;54456;48.436;10.028;2022-10-22T15:40:58;8.45;;;4.00;;
67675;SDS011;54456;48.436;10.028;2022-10-22T15:42:32;9.23;;;4.78;;
67675;SDS011;54456;48.436;10.028;2022-10-22T15:44:03;7.10;;;3.03;;
67675;SDS011;54456;48.436;10.028;2022-10-22T15:45:35;7.25;;;3.60;;
67675;SDS011;54456;48.436;10.028;2022-10-22T15:47:06;7.90;;;3.40;;
67675;SDS011;54456;48.436;10.028;2022-10-22T15:48:36;9.68;;;3.65;;
67675;SDS011;54456;48.436;10.028;2022-10-22T15:50:07;6.75;;;3.20;;
67675;SDS011;54456;48.436;10.028;2022-10-22T15:51:38;7.70;;;3.08;;
67675;SDS011;54456;48.436;10.028;2022-10-22T15:53:09;7.53;;;2.90;;
67675;SDS011;54456;48.436;10.028;2022-10-22T15:54:39;7.73;;;3.23;;
67675;SDS011;54456;48.436;10.028;2022-10-22T15:56:10;7.55;;;3.40;;
67675;SDS011;54456;48.436;10.028;2022-10-22T15:57:43;8.55;;;3.10;;
67675;SDS011;54456;48.436;10.028;2022-10-22T15:59:14;11.88;;;4.10;;
67675;SDS011;54456;48.436;10.028;2022-10-22T16:00:45;12.43;;;4.53;;
67675;SDS011;54456;48.436;10.028;2022-10-22T16:02:15;25.67;;;8.30;;
67675;SDS011;54456;48.436;10.028;2022-10-22T16:03:45;14.38;;;5.53;;
67675;SDS011;54456;48.436;10.028;2022-10-22T16:05:16;156.80;;;63.13;;
67675;SDS011;54456;48.436;10.028;2022-10-22T16:06:47;104.88;;;36.75;;
67675;SDS011;54456;48.436;10.028;2022-10-22T16:08:19;88.95;;;39.78;;
67675;SDS011;54456;48.436;10.028;2022-10-22T16:09:50;113.43;;;45.35;;
67675;SDS011;54456;48.436;10.028;2022-10-22T16:11:24;41.15;;;17.55;;
67675;SDS011;54456;48.436;10.028;2022-10-22T16:12:55;9.60;;;3.97;;
67675;SDS011;54456;48.436;10.028;2022-10-22T16:14:25;11.40;;;3.90;;
67675;SDS011;54456;48.436;10.028;2022-10-22T16:15:57;12.85;;;4.32;;
67675;SDS011;54456;48.436;10.028;2022-10-22T16:17:27;10.05;;;4.10;;
67675;SDS011;54456;48.436;10.028;2022-10-22T16:18:58;9.23;;;3.83;;
67675;SDS011;54456;48.436;10.028;2022-10-22T16:20:28;8.82;;;3.72;;
67675;SDS011;54456;48.436;10.028;2022-10-22T16:21:59;10.35;;;4.15;;
67675;SDS011;54456;48.436;10.028;2022-10-22T16:23:31;10.93;;;4.00;;
67675;SDS011;54456;48.436;10.028;2022-10-22T16:25:02;9.60;;;3.72;;
67675;SDS011;54456;48.436;10.028;2022-10-22T16:26:33;11.00;;;4.18;;
67675;SDS011;54456;48.436;10.028;2022-10-22T16:28:04;9.57;;;4.40;;
67675;SDS011;54456;48.436;10.028;2022-10-22T16:29:37;9.82;;;4.18;;
67675;SDS011;54456;48.436;10.028;2022-10-22T16:31:09;7.28;;;3.67;;
67675;SDS011;54456;48.436;10.028;2022-10-22T16:32:40;9.55;;;4.00;;
67675;SDS011;54456;48.436;10.028;2022-10-22T16:34:11;11.50;;;3.70;;
67675;SDS011;54456;48.436;10.028;2022-10-22T16:35:41;9.13;;;3.78;;
67675;SDS011;54456;48.436;10.028;2022-10-22T16:37:12;10.83;;;3.97;;
67675;SDS011;54456;48.436;10.028;2022-10-22T16:38:42;8.70;;;4.28;;
67675;SDS011;54456;48.436;10.028;2022-10-22T16:40:13;10.02;;;4.13;;
67675;SDS011;54456;48.436;10.028;2022-10-22T16:41:44;7.93;;;3.92;;
67675;SDS011;54456;48.436;10.028;2022-10-22T16:43:14;11.05;;;4.38;;
67675;SDS011;54456;48.436;10.028;2022-10-22T16:44:44;10.10;;;4.22;;
67675;SDS011;54456;48.436;10.028;2022-10-22T16:46:16;7.73;;;3.70;;
67675;SDS011;54456;48.436;10.028;2022-10-22T16:47:47;8.07;;;3.83;;
67675;SDS011;54456;48.436;10.028;2022-10-22T16:49:18;10.73;;;4.53;;
67675;SDS011;54456;48.436;10.028;2022-10-22T16:50:48;9.25;;;4.10;;
67675;SDS011;54456;48.436;10.028;2022-10-22T16:52:18;8.57;;;4.10;;
67675;SDS011;54456;48.436;10.028;2022-10-22T16:53:50;10.82;;;4.10;;
67675;SDS011;54456;48.436;10.028;2022-10-22T16:55:21;9.60;;;4.32;;
67675;SDS011;54456;48.436;10.028;2022-10-22T16:56:51;10.68;;;4.47;;
67675;SDS011;54456;48.436;10.028;2022-10-22T16:58:22;10.07;;;4.53;;
67675;SDS011;54456;48.436;10.028;2022-10-22T16:59:54;9.88;;;4.53;;
67675;SDS011;54456;48.436;10.028;2022-10-22T17:01:26;11.38;;;4.60;;
67675;SDS011;54456;48.436;10.028;2022-10-22T17:02:57;10.02;;;4.93;;
67675;SDS011;54456;48.436;10.028;2022-10-22T17:04:28;9.73;;;4.90;;
67675;SDS011;54456;48.436;10.028;2022-10-22T17:05:58;11.07;;;4.77;;
67675;SDS011;54456;48.436;10.028;2022-10-22T17:07:29;10.05;;;5.13;;
67675;SDS011;54456;48.436;10.028;2022-10-22T17:08:59;10.27;;;5.13;;
67675;SDS011;54456;48.436;10.028;2022-10-22T17:10:29;12.40;;;5.13;;
67675;SDS011;54456;48.436;10.028;2022-10-22T17:12:00;9.60;;;4.90;;
67675;SDS011;54456;48.436;10.028;2022-10-22T17:13:30;14.10;;;4.73;;
67675;SDS011;54456;48.436;10.028;2022-10-22T17:15:02;10.13;;;4.72;;
67675;SDS011;54456;48.436;10.028;2022-10-22T17:16:33;9.73;;;4.93;;
67675;SDS011;54456;48.436;10.028;2022-10-22T17:18:04;12.63;;;5.13;;
67675;SDS011;54456;48.436;10.028;2022-10-22T17:19:34;11.13;;;4.65;;
67675;SDS011;54456;48.436;10.028;2022-10-22T17:21:08;9.90;;;4.65;;
67675;SDS011;54456;48.436;10.028;2022-10-22T17:22:39;9.82;;;5.00;;
67675;SDS011;54456;48.436;10.028;2022-10-22T17:24:09;10.98;;;5.35;;
67675;SDS011;54456;48.436;10.028;2022-10-22T17:25:41;14.95;;;7.30;;
67675;SDS011;54456;48.436;10.028;2022-10-22T17:27:12;11.15;;;5.85;;
67675;SDS011;54456;48.436;10.028;2022-10-22T17:28:43;12.63;;;6.22;;
67675;SDS011;54456;48.436;10.028;2022-10-22T17:30:14;13.20;;;6.07;;
67675;SDS011;54456;48.436;10.028;2022-10-22T17:31:47;11.65;;;6.30;;
67675;SDS011;54456;48.436;10.028;2022-10-22T17:33:19;10.95;;;5.60;;
67675;SDS011;54456;48.436;10.028;2022-10-22T17:34:49;13.90;;;6.83;;
67675;SDS011;54456;48.436;10.028;2022-10-22T17:36:20;12.13;;;6.43;;
67675;SDS011;54456;48.436;10.028;2022-10-22T17:37:52;13.35;;;6.45;;
67675;SDS011;54456;48.436;10.028;2022-10-22T17:39:22;12.17;;;6.37;;
67675;SDS011;54456;48.436;10.028;2022-10-22T17:40:52;12.75;;;6.22;;
67675;SDS011;54456;48.436;10.028;2022-10-22T17:42:23;11.32;;;6.00;;
67675;SDS011;54456;48.436;10.028;2022-10-22T17:43:54;14.38;;;6.38;;
67675;SDS011;54456;48.436;10.028;2022-10-22T17:45:25;13.30;;;6.75;;
67675;SDS011;54456;48.436;10.028;2022-10-22T17:46:56;14.77;;;6.87;;
67675;SDS011;54456;48.436;10.028;2022-10-22T17:48:26;12.70;;;7.07;;
67675;SDS011;54456;48.436;10.028;2022-10-22T17:49:56;16.50;;;8.37;;
67675;SDS011;54456;48.436;10.028;2022-10-22T17:51:28;16.67;;;8.65;;
67675;SDS011;54456;48.436;10.028;2022-10-22T17:52:59;18.10;;;9.88;;
67675;SDS011;54456;48.436;10.028;2022-10-22T17:54:29;17.83;;;8.98;;
67675;SDS011;54456;48.436;10.028;2022-10-22T17:56:00;17.55;;;9.02;;
67675;SDS011;54456;48.436;10.028;2022-10-22T17:57:31;18.15;;;8.65;;
67675;SDS011;54456;48.436;10.028;2022-10-22T17:59:01;16.10;;;8.47;;
67675;SDS011;54456;48.436;10.028;2022-10-22T18:00:33;18.65;;;8.88;;
67675;SDS011;54456;48.436;10.028;2022-10-22T18:02:05;17.45;;;8.45;;
67675;SDS011;54456;48.436;10.028;2022-10-22T18:03:35;15.57;;;8.20;;
67675;SDS011;54456;48.436;10.028;2022-10-22T18:05:06;16.50;;;8.77;;
67675;SDS011;54456;48.436;10.028;2022-10-22T18:06:37;16.17;;;8.23;;
67675;SDS011;54456;48.436;10.028;2022-10-22T18:08:08;19.88;;;9.27;;
67675;SDS011;54456;48.436;10.028;2022-10-22T18:09:38;18.03;;;8.63;;
67675;SDS011;54456;48.436;10.028;2022-10-22T18:11:10;20.08;;;8.48;;
67675;SDS011;54456;48.436;10.028;2022-10-22T18:12:46;19.60;;;8.40;;
67675;SDS011;54456;48.436;10.028;2022-10-22T18:14:18;17.38;;;8.45;;
67675;SDS011;54456;48.436;10.028;2022-10-22T18:15:53;16.38;;;7.90;;
67675;SDS011;54456;48.436;10.028;2022-10-22T18:17:24;17.90;;;8.10;;
67675;SDS011;54456;48.436;10.028;2022-10-22T18:18:56;15.55;;;8.70;;
67675;SDS011;54456;48.436;10.028;2022-10-22T18:20:27;17.20;;;8.68;;
67675;SDS011;54456;48.436;10.028;2022-10-22T18:21:57;15.77;;;7.75;;
67675;SDS011;54456;48.436;10.028;2022-10-22T18:23:29;15.00;;;7.35;;
67675;SDS011;54456;48.436;10.028;2022-10-22T18:24:59;17.70;;;8.25;;
67675;SDS011;54456;48.436;10.028;2022-10-22T18:26:30;15.80;;;8.10;;
67675;SDS011;54456;48.436;10.028;2022-10-22T18:28:00;14.90;;;7.67;;
67675;SDS011;54456;48.436;10.028;2022-10-22T18:29:30;14.17;;;7.60;;
67675;SDS011;54456;48.436;10.028;2022-10-22T18:31:04;14.43;;;7.43;;
67675;SDS011;54456;48.436;10.028;2022-10-22T18:32:38;16.98;;;8.02;;
67675;SDS011;54456;48.436;10.028;2022-10-22T18:34:08;18.08;;;8.05;;
67675;SDS011;54456;48.436;10.028;2022-10-22T18:35:39;16.73;;;8.90;;
67675;SDS011;54456;48.436;10.028;2022-10-22T18:37:12;19.85;;;8.82;;
67675;SDS011;54456;48.436;10.028;2022-10-22T18:38:42;17.63;;;8.18;;
67675;SDS011;54456;48.436;10.028;2022-10-22T18:40:13;16.83;;;8.10;;
67675;SDS011;54456;48.436;10.028;2022-10-22T18:41:43;16.70;;;8.65;;
67675;SDS011;54456;48.436;10.028;2022-10-22T18:43:14;17.70;;;8.65;;
67675;SDS011;54456;48.436;10.028;2022-10-22T18:44:45;16.73;;;8.65;;
67675;SDS011;54456;48.436;10.028;2022-10-22T18:46:15;14.52;;;7.82;;
67675;SDS011;54456;48.436;10.028;2022-10-22T18:47:47;18.13;;;8.10;;
67675;SDS011;54456;48.436;10.028;2022-10-22T18:49:18;16.27;;;7.93;;
67675;SDS011;54456;48.436;10.028;2022-10-22T18:50:57;16.38;;;7.57;;
67675;SDS011;54456;48.436;10.028;2022-10-22T18:52:31;16.15;;;7.40;;
67675;SDS011;54456;48.436;10.028;2022-10-22T18:54:02;14.60;;;6.38;;
67675;SDS011;54456;48.436;10.028;2022-10-22T18:55:33;13.27;;;5.88;;
67675;SDS011;54456;48.436;10.028;2022-10-22T18:57:04;13.82;;;6.35;;
67675;SDS011;54456;48.436;10.028;2022-10-22T18:58:37;13.32;;;6.40;;
67675;SDS011;54456;48.436;10.028;2022-10-22T19:00:11;12.38;;;5.85;;